sensor_id;sensor_type;location;lat;lon;timestamp;pressure;altitude;pressure_sealevel;temperature;humidity
55317;BME280;41178;48.956;8.130;2024-02-14T00:04:43;99927.41;;;7.28;49.18
55317;BME280;41178;48.956;8.130;2024-02-14T00:09:45;99942.97;;;6.88;50.02
55317;BME280;41178;48.956;8.130;2024-02-14T00:14:47;99874.50;;;8.66;47.27
55317;BME280;41178;48.956;8.130;2024-02-14T00:19:48;99985.81;;;7.29;49.03
55317;BME280;41178;48.956;8.130;2024-02-14T00:24:50;100125.13;;;6.11;50.57
55317;BME280;41178;48.956;8.130;2024-02-14T00:29:52;100012.75;;;7.26;48.78
55317;BME280;41178;48.956;8.130;2024-02-14T00:34:56;100022.34;;;7.80;47.68
55317;BME280;41178;48.956;8.130;2024-02-14T00:39:58;99907.22;;;8.27;47.64
55317;BME280;41178;48.956;8.130;2024-02-14T00:44:59;100149.09;;;5.34;51.94
55317;BME280;41178;48.956;8.130;2024-02-14T00:50:04;100062.16;;;6.21;50.73
55317;BME280;41178;48.956;8.130;2024-02-14T00:55:07;99972.75;;;6.92;49.95
55317;BME280;41178;48.956;8.130;2024-02-14T01:00:09;100063.19;;;6.56;49.92
55317;BME280;41178;48.956;8.130;2024-02-14T01:05:10;99859.97;;;7.70;48.99
55317;BME280;41178;48.956;8.130;2024-02-14T01:10:12;99861.72;;;8.12;47.97
55317;BME280;41178;48.956;8.130;2024-02-14T01:15:14;99939.53;;;7.65;48.51
55317;BME280;41178;48.956;8.130;2024-02-14T01:20:16;99976.34;;;7.09;49.42
55317;BME280;41178;48.956;8.130;2024-02-14T01:25:17;99962.72;;;7.38;48.81
55317;BME280;41178;48.956;8.130;2024-02-14T01:30:19;99865.25;;;7.03;50.21
55317;BME280;41178;48.956;8.130;2024-02-14T01:35:21;99901.22;;;6.44;51.27
55317;BME280;41178;48.956;8.130;2024-02-14T01:40:23;99872.28;;;6.59;51.11
55317;BME280;41178;48.956;8.130;2024-02-14T01:45:25;99931.28;;;6.81;49.91
55317;BME280;41178;48.956;8.130;2024-02-14T01:50:26;99899.63;;;7.30;48.91
55317;BME280;41178;48.956;8.130;2024-02-14T01:55:33;100006.59;;;7.26;48.34
55317;BME280;41178;48.956;8.130;2024-02-14T02:00:36;99950.94;;;7.14;48.82
55317;BME280;41178;48.956;8.130;2024-02-14T02:05:38;100005.38;;;6.22;50.54
55317;BME280;41178;48.956;8.130;2024-02-14T02:10:40;99926.06;;;6.97;49.40
55317;BME280;41178;48.956;8.130;2024-02-14T02:15:42;99888.66;;;6.99;49.51
55317;BME280;41178;48.956;8.130;2024-02-14T02:20:47;99891.69;;;6.78;49.87
55317;BME280;41178;48.956;8.130;2024-02-14T02:25:49;99947.22;;;6.99;48.98
55317;BME280;41178;48.956;8.130;2024-02-14T02:30:51;99874.69;;;7.90;47.52
55317;BME280;41178;48.956;8.130;2024-02-14T02:35:55;100021.78;;;7.07;48.55
55317;BME280;41178;48.956;8.130;2024-02-14T02:40:56;99891.28;;;7.25;49.04
55317;BME280;41178;48.956;8.130;2024-02-14T02:45:58;99896.81;;;7.91;47.33
55317;BME280;41178;48.956;8.130;2024-02-14T02:51:00;99888.78;;;7.83;48.02
55317;BME280;41178;48.956;8.130;2024-02-14T02:56:02;99999.03;;;7.47;48.19
55317;BME280;41178;48.956;8.130;2024-02-14T03:01:08;100062.44;;;6.99;48.58
55317;BME280;41178;48.956;8.130;2024-02-14T03:06:11;99972.25;;;7.14;49.21
55317;BME280;41178;48.956;8.130;2024-02-14T03:11:15;99941.22;;;7.31;48.82
55317;BME280;41178;48.956;8.130;2024-02-14T03:16:17;99948.34;;;7.23;48.77
55317;BME280;41178;48.956;8.130;2024-02-14T03:21:19;99969.69;;;7.39;48.55
55317;BME280;41178;48.956;8.130;2024-02-14T03:26:20;99935.50;;;6.92;49.63
55317;BME280;41178;48.956;8.130;2024-02-14T03:31:22;99995.13;;;7.33;48.42
55317;BME280;41178;48.956;8.130;2024-02-14T03:36:24;99937.50;;;8.09;47.29
55317;BME280;41178;48.956;8.130;2024-02-14T03:41:29;99866.31;;;8.76;46.54
55317;BME280;41178;48.956;8.130;2024-02-14T03:46:31;100026.88;;;7.01;48.75
55317;BME280;41178;48.956;8.130;2024-02-14T03:51:36;99923.41;;;7.66;48.36
55317;BME280;41178;48.956;8.130;2024-02-14T03:56:38;99922.84;;;8.14;47.22
55317;BME280;41178;48.956;8.130;2024-02-14T04:01:44;100026.22;;;7.59;48.26
55317;BME280;41178;48.956;8.130;2024-02-14T04:06:46;100050.22;;;6.89;49.47
55317;BME280;41178;48.956;8.130;2024-02-14T04:11:49;99887.16;;;7.98;48.39
55317;BME280;41178;48.956;8.130;2024-02-14T04:16:51;100137.47;;;7.21;48.65
55317;BME280;41178;48.956;8.130;2024-02-14T04:21:53;100041.22;;;7.34;48.98
55317;BME280;41178;48.956;8.130;2024-02-14T04:26:55;99930.97;;;7.96;48.44
55317;BME280;41178;48.956;8.130;2024-02-14T04:31:59;99934.19;;;8.16;47.93
55317;BME280;41178;48.956;8.130;2024-02-14T04:37:01;100048.88;;;7.89;47.94
55317;BME280;41178;48.956;8.130;2024-02-14T04:42:04;100268.97;;;5.78;50.43
55317;BME280;41178;48.956;8.130;2024-02-14T04:47:06;100079.72;;;6.95;49.38
55317;BME280;41178;48.956;8.130;2024-02-14T04:52:11;99979.13;;;7.60;48.82
55317;BME280;41178;48.956;8.130;2024-02-14T04:57:13;99994.31;;;7.33;49.38
55317;BME280;41178;48.956;8.130;2024-02-14T05:02:14;100197.19;;;6.45;49.82
55317;BME280;41178;48.956;8.130;2024-02-14T05:07:16;100095.81;;;6.76;50.01
55317;BME280;41178;48.956;8.130;2024-02-14T05:12:18;100024.66;;;7.22;49.40
55317;BME280;41178;48.956;8.130;2024-02-14T05:17:21;100069.97;;;7.04;49.26
55317;BME280;41178;48.956;8.130;2024-02-14T05:22:23;99971.16;;;8.10;48.07
55317;BME280;41178;48.956;8.130;2024-02-14T05:27:25;100056.63;;;7.48;48.92
55317;BME280;41178;48.956;8.130;2024-02-14T05:32:26;100045.69;;;8.45;47.13
55317;BME280;41178;48.956;8.130;2024-02-14T05:37:29;100080.22;;;8.46;47.04
55317;BME280;41178;48.956;8.130;2024-02-14T05:42:30;100115.72;;;8.39;47.31
55317;BME280;41178;48.956;8.130;2024-02-14T05:47:32;100011.13;;;9.58;46.07
55317;BME280;41178;48.956;8.130;2024-02-14T05:52:34;100153.16;;;8.29;47.79
55317;BME280;41178;48.956;8.130;2024-02-14T05:57:37;100174.28;;;8.65;46.81
55317;BME280;41178;48.956;8.130;2024-02-14T06:02:38;100129.22;;;9.05;46.23
55317;BME280;41178;48.956;8.130;2024-02-14T06:07:43;100117.19;;;8.41;47.77
55317;BME280;41178;48.956;8.130;2024-02-14T06:12:48;100188.13;;;8.69;46.88
55317;BME280;41178;48.956;8.130;2024-02-14T06:17:50;100140.38;;;9.00;47.20
55317;BME280;41178;48.956;8.130;2024-02-14T06:22:52;100072.63;;;9.26;47.62
55317;BME280;41178;48.956;8.130;2024-02-14T06:28:05;100117.44;;;8.73;48.95
55317;BME280;41178;48.956;8.130;2024-02-14T06:33:07;100145.38;;;9.19;48.25
55317;BME280;41178;48.956;8.130;2024-02-14T06:38:09;100114.63;;;9.48;48.05
55317;BME280;41178;48.956;8.130;2024-02-14T06:43:11;100154.47;;;8.84;49.19
55317;BME280;41178;48.956;8.130;2024-02-14T06:48:14;100184.09;;;8.56;49.28
55317;BME280;41178;48.956;8.130;2024-02-14T06:53:15;100195.97;;;8.70;49.11
55317;BME280;41178;48.956;8.130;2024-02-14T06:58:17;100161.59;;;8.59;49.37
55317;BME280;41178;48.956;8.130;2024-02-14T07:03:19;100156.22;;;9.01;48.17
55317;BME280;41178;48.956;8.130;2024-02-14T07:08:21;100016.59;;;9.65;48.12
55317;BME280;41178;48.956;8.130;2024-02-14T07:13:23;100174.06;;;8.93;48.99
55317;BME280;41178;48.956;8.130;2024-02-14T07:18:24;100132.94;;;8.61;50.08
55317;BME280;41178;48.956;8.130;2024-02-14T07:23:26;100143.53;;;9.03;48.76
55317;BME280;41178;48.956;8.130;2024-02-14T07:28:28;100239.16;;;8.05;50.66
55317;BME280;41178;48.956;8.130;2024-02-14T07:33:30;100157.69;;;8.02;51.47
55317;BME280;41178;48.956;8.130;2024-02-14T07:38:32;100233.16;;;8.03;50.67
55317;BME280;41178;48.956;8.130;2024-02-14T07:43:34;100055.59;;;9.18;49.83
55317;BME280;41178;48.956;8.130;2024-02-14T07:48:36;100183.41;;;8.46;50.42
55317;BME280;41178;48.956;8.130;2024-02-14T07:53:38;100157.31;;;8.32;50.90
55317;BME280;41178;48.956;8.130;2024-02-14T07:58:40;100207.59;;;8.18;50.93
55317;BME280;41178;48.956;8.130;2024-02-14T08:03:41;100113.28;;;8.78;49.96
55317;BME280;41178;48.956;8.130;2024-02-14T08:08:43;100069.13;;;9.25;49.79
55317;BME280;41178;48.956;8.130;2024-02-14T08:13:50;100068.81;;;9.92;48.43
55317;BME280;41178;48.956;8.130;2024-02-14T08:18:52;100086.88;;;9.74;48.58
55317;BME280;41178;48.956;8.130;2024-02-14T08:24:00;100097.38;;;9.92;48.29
55317;BME280;41178;48.956;8.130;2024-02-14T08:29:02;100235.22;;;9.45;48.49
55317;BME280;41178;48.956;8.130;2024-02-14T08:34:05;100192.63;;;9.44;49.16
55317;BME280;41178;48.956;8.130;2024-02-14T08:39:08;100232.69;;;9.76;48.29
55317;BME280;41178;48.956;8.130;2024-02-14T08:44:11;100160.84;;;9.98;48.45
55317;BME280;41178;48.956;8.130;2024-02-14T08:49:13;100202.97;;;9.80;48.41
55317;BME280;41178;48.956;8.130;2024-02-14T08:54:15;100267.84;;;8.98;49.76
55317;BME280;41178;48.956;8.130;2024-02-14T08:59:17;100174.91;;;9.67;48.83
55317;BME280;41178;48.956;8.130;2024-02-14T09:04:19;100190.28;;;9.65;48.56
55317;BME280;41178;48.956;8.130;2024-02-14T09:09:21;100142.69;;;9.69;50.26
55317;BME280;41178;48.956;8.130;2024-02-14T09:14:23;100229.69;;;9.38;50.18
55317;BME280;41178;48.956;8.130;2024-02-14T09:19:27;100176.41;;;9.94;49.97
55317;BME280;41178;48.956;8.130;2024-02-14T09:24:29;100188.63;;;9.39;51.33
55317;BME280;41178;48.956;8.130;2024-02-14T09:29:31;100095.06;;;9.81;51.52
55317;BME280;41178;48.956;8.130;2024-02-14T09:34:33;100102.28;;;9.64;51.04
55317;BME280;41178;48.956;8.130;2024-02-14T09:39:35;100096.44;;;10.24;49.72
55317;BME280;41178;48.956;8.130;2024-02-14T09:44:40;100125.53;;;11.28;47.41
55317;BME280;41178;48.956;8.130;2024-02-14T09:49:42;100295.34;;;10.07;48.58
55317;BME280;41178;48.956;8.130;2024-02-14T09:54:44;100242.09;;;10.53;47.78
55317;BME280;41178;48.956;8.130;2024-02-14T09:59:46;100161.16;;;11.52;46.61
55317;BME280;41178;48.956;8.130;2024-02-14T10:04:49;100266.97;;;10.70;47.38
55317;BME280;41178;48.956;8.130;2024-02-14T10:09:51;100176.25;;;11.06;47.46
55317;BME280;41178;48.956;8.130;2024-02-14T10:14:55;100279.88;;;11.06;46.80
55317;BME280;41178;48.956;8.130;2024-02-14T10:19:58;100239.88;;;11.04;47.66
55317;BME280;41178;48.956;8.130;2024-02-14T10:25:00;100316.53;;;11.05;47.84
55317;BME280;41178;48.956;8.130;2024-02-14T10:30:02;100190.69;;;12.49;46.22
55317;BME280;41178;48.956;8.130;2024-02-14T10:35:04;100423.53;;;10.66;48.05
55317;BME280;41178;48.956;8.130;2024-02-14T10:40:10;100259.31;;;10.98;49.11
55317;BME280;41178;48.956;8.130;2024-02-14T10:45:12;100273.22;;;11.79;47.67
55317;BME280;41178;48.956;8.130;2024-02-14T10:50:15;100291.75;;;11.35;48.67
55317;BME280;41178;48.956;8.130;2024-02-14T10:55:17;100333.09;;;11.09;49.13
55317;BME280;41178;48.956;8.130;2024-02-14T11:06:21;100248.22;;;9.73;52.50
55317;BME280;41178;48.956;8.130;2024-02-14T11:11:24;100244.88;;;9.63;52.61
55317;BME280;41178;48.956;8.130;2024-02-14T11:16:27;100197.31;;;10.39;51.74
55317;BME280;41178;48.956;8.130;2024-02-14T11:21:30;100175.25;;;10.45;52.47
55317;BME280;41178;48.956;8.130;2024-02-14T11:27:01;100217.84;;;9.66;53.03
55317;BME280;41178;48.956;8.130;2024-02-14T11:32:00;100224.34;;;9.30;53.70
55317;BME280;41178;48.956;8.130;2024-02-14T11:37:03;100135.53;;;10.17;53.05
55317;BME280;41178;48.956;8.130;2024-02-14T11:42:08;100206.47;;;9.88;52.98
55317;BME280;41178;48.956;8.130;2024-02-14T11:47:11;100253.91;;;10.11;52.42
55317;BME280;41178;48.956;8.130;2024-02-14T11:52:12;100210.50;;;10.01;53.12
55317;BME280;41178;48.956;8.130;2024-02-14T11:57:18;100135.81;;;10.70;52.67
55317;BME280;41178;48.956;8.130;2024-02-14T12:02:21;100205.84;;;10.34;52.57
55317;BME280;41178;48.956;8.130;2024-02-14T12:07:23;100260.09;;;10.11;53.00
55317;BME280;41178;48.956;8.130;2024-02-14T12:12:26;100295.84;;;9.77;54.03
55317;BME280;41178;48.956;8.130;2024-02-14T12:17:29;100222.91;;;10.41;52.83
55317;BME280;41178;48.956;8.130;2024-02-14T12:22:31;100186.19;;;11.21;52.37
55317;BME280;41178;48.956;8.130;2024-02-14T12:27:34;100323.56;;;10.26;53.80
55317;BME280;41178;48.956;8.130;2024-02-14T12:32:35;100265.72;;;10.89;53.01
55317;BME280;41178;48.956;8.130;2024-02-14T12:37:37;100221.66;;;10.60;53.92
55317;BME280;41178;48.956;8.130;2024-02-14T12:42:39;100224.53;;;11.21;52.54
55317;BME280;41178;48.956;8.130;2024-02-14T12:47:41;100134.09;;;11.61;52.64
55317;BME280;41178;48.956;8.130;2024-02-14T12:52:44;100193.97;;;10.84;54.44
55317;BME280;41178;48.956;8.130;2024-02-14T12:57:47;100251.78;;;10.54;54.84
55317;BME280;41178;48.956;8.130;2024-02-14T13:02:50;100245.06;;;10.66;54.83
55317;BME280;41178;48.956;8.130;2024-02-14T13:07:51;100206.47;;;11.15;53.75
55317;BME280;41178;48.956;8.130;2024-02-14T13:12:53;100279.38;;;11.02;53.12
55317;BME280;41178;48.956;8.130;2024-02-14T13:17:57;100212.66;;;11.85;52.44
55317;BME280;41178;48.956;8.130;2024-02-14T13:23:01;100275.38;;;10.98;53.90
55317;BME280;41178;48.956;8.130;2024-02-14T13:28:04;100167.72;;;12.17;52.19
55317;BME280;41178;48.956;8.130;2024-02-14T13:33:07;100286.13;;;11.76;52.30
55317;BME280;41178;48.956;8.130;2024-02-14T13:38:11;100209.72;;;12.40;51.59
55317;BME280;41178;48.956;8.130;2024-02-14T13:43:13;100289.88;;;11.67;52.53
55317;BME280;41178;48.956;8.130;2024-02-14T13:48:18;100240.28;;;12.39;51.52
55317;BME280;41178;48.956;8.130;2024-02-14T13:53:20;100341.38;;;11.85;51.32
55317;BME280;41178;48.956;8.130;2024-02-14T13:58:24;100244.31;;;12.05;51.62
55317;BME280;41178;48.956;8.130;2024-02-14T14:03:26;100295.06;;;11.91;51.75
55317;BME280;41178;48.956;8.130;2024-02-14T14:08:28;100262.09;;;12.21;51.77
55317;BME280;41178;48.956;8.130;2024-02-14T14:13:30;100265.13;;;12.17;51.97
55317;BME280;41178;48.956;8.130;2024-02-14T14:18:35;100195.38;;;13.20;50.36
55317;BME280;41178;48.956;8.130;2024-02-14T14:23:37;100300.28;;;12.61;50.61
55317;BME280;41178;48.956;8.130;2024-02-14T14:28:38;100326.66;;;12.57;51.15
55317;BME280;41178;48.956;8.130;2024-02-14T14:33:40;100268.19;;;12.89;51.22
55317;BME280;41178;48.956;8.130;2024-02-14T14:38:42;100362.13;;;12.29;51.72
55317;BME280;41178;48.956;8.130;2024-02-14T14:43:44;100258.03;;;12.84;51.70
55317;BME280;41178;48.956;8.130;2024-02-14T14:48:46;100203.00;;;13.88;49.67
55317;BME280;41178;48.956;8.130;2024-02-14T14:53:48;100342.44;;;13.26;49.52
55317;BME280;41178;48.956;8.130;2024-02-14T14:58:50;100290.53;;;12.89;51.44
55317;BME280;41178;48.956;8.130;2024-02-14T15:03:51;100326.09;;;12.91;51.73
55317;BME280;41178;48.956;8.130;2024-02-14T15:08:56;100237.97;;;13.02;52.52
55317;BME280;41178;48.956;8.130;2024-02-14T15:13:58;100308.16;;;12.62;52.99
55317;BME280;41178;48.956;8.130;2024-02-14T15:18:59;100350.78;;;12.42;53.07
55317;BME280;41178;48.956;8.130;2024-02-14T15:24:02;100295.59;;;11.87;55.47
55317;BME280;41178;48.956;8.130;2024-02-14T15:29:05;100288.28;;;12.33;54.45
55317;BME280;41178;48.956;8.130;2024-02-14T15:34:26;100264.31;;;12.91;52.97
55317;BME280;41178;48.956;8.130;2024-02-14T15:39:28;100174.78;;;14.40;50.32
55317;BME280;41178;48.956;8.130;2024-02-14T15:44:30;100381.47;;;13.74;50.76
55317;BME280;41178;48.956;8.130;2024-02-14T15:49:31;100321.56;;;14.08;50.03
55317;BME280;41178;48.956;8.130;2024-02-14T15:54:37;100259.19;;;13.48;51.90
55317;BME280;41178;48.956;8.130;2024-02-14T15:59:45;100288.69;;;13.26;51.74
55317;BME280;41178;48.956;8.130;2024-02-14T16:04:48;100308.56;;;12.96;52.97
55317;BME280;41178;48.956;8.130;2024-02-14T16:09:50;100310.88;;;12.84;52.97
55317;BME280;41178;48.956;8.130;2024-02-14T16:14:52;100277.66;;;12.85;53.20
55317;BME280;41178;48.956;8.130;2024-02-14T16:19:53;100301.31;;;12.22;54.14
55317;BME280;41178;48.956;8.130;2024-02-14T16:24:55;100211.19;;;13.08;52.42
55317;BME280;41178;48.956;8.130;2024-02-14T16:29:57;100228.44;;;12.63;53.43
55317;BME280;41178;48.956;8.130;2024-02-14T16:35:01;100321.69;;;12.31;53.51
55317;BME280;41178;48.956;8.130;2024-02-14T16:40:03;100285.25;;;12.81;52.99
55317;BME280;41178;48.956;8.130;2024-02-14T16:45:07;100324.09;;;13.30;51.33
55317;BME280;41178;48.956;8.130;2024-02-14T16:50:09;100240.50;;;13.25;52.30
55317;BME280;41178;48.956;8.130;2024-02-14T16:55:11;100343.94;;;12.54;52.97
55317;BME280;41178;48.956;8.130;2024-02-14T17:00:13;100243.75;;;13.20;52.69
55317;BME280;41178;48.956;8.130;2024-02-14T17:05:15;100319.16;;;12.52;53.44
55317;BME280;41178;48.956;8.130;2024-02-14T17:10:16;100317.59;;;12.35;53.93
55317;BME280;41178;48.956;8.130;2024-02-14T17:15:19;100292.66;;;12.94;52.56
55317;BME280;41178;48.956;8.130;2024-02-14T17:20:21;100312.03;;;12.74;53.18
55317;BME280;41178;48.956;8.130;2024-02-14T17:25:22;100306.16;;;13.01;52.31
55317;BME280;41178;48.956;8.130;2024-02-14T17:30:24;100245.03;;;13.03;52.59
55317;BME280;41178;48.956;8.130;2024-02-14T17:35:26;100297.13;;;12.57;53.34
55317;BME280;41178;48.956;8.130;2024-02-14T17:40:27;100332.75;;;12.51;52.56
55317;BME280;41178;48.956;8.130;2024-02-14T17:45:29;100351.81;;;12.18;53.70
55317;BME280;41178;48.956;8.130;2024-02-14T17:50:31;100332.00;;;11.81;54.71
55317;BME280;41178;48.956;8.130;2024-02-14T17:55:34;100252.63;;;13.57;50.98
55317;BME280;41178;48.956;8.130;2024-02-14T18:00:35;100302.22;;;12.52;53.07
55317;BME280;41178;48.956;8.130;2024-02-14T18:05:37;100243.41;;;12.72;53.04
55317;BME280;41178;48.956;8.130;2024-02-14T18:10:42;100298.97;;;12.71;52.24
55317;BME280;41178;48.956;8.130;2024-02-14T18:15:45;100220.47;;;13.71;51.01
55317;BME280;41178;48.956;8.130;2024-02-14T18:20:47;100275.91;;;13.28;51.75
55317;BME280;41178;48.956;8.130;2024-02-14T18:25:49;100337.94;;;12.14;53.78
55317;BME280;41178;48.956;8.130;2024-02-14T18:30:51;100264.63;;;11.99;54.65
55317;BME280;41178;48.956;8.130;2024-02-14T18:35:52;100330.19;;;12.72;52.00
55317;BME280;41178;48.956;8.130;2024-02-14T18:40:54;100295.19;;;13.32;51.05
55317;BME280;41178;48.956;8.130;2024-02-14T18:45:58;100417.75;;;11.66;54.35
55317;BME280;41178;48.956;8.130;2024-02-14T18:51:00;100338.44;;;11.72;54.80
55317;BME280;41178;48.956;8.130;2024-02-14T18:56:01;100349.00;;;11.73;54.78
55317;BME280;41178;48.956;8.130;2024-02-14T19:01:04;100305.91;;;11.98;54.52
55317;BME280;41178;48.956;8.130;2024-02-14T19:06:06;100320.81;;;11.15;56.28
55317;BME280;41178;48.956;8.130;2024-02-14T19:11:08;100258.00;;;10.94;57.34
55317;BME280;41178;48.956;8.130;2024-02-14T19:16:10;100257.88;;;10.87;57.66
55317;BME280;41178;48.956;8.130;2024-02-14T19:21:28;100271.34;;;11.57;55.71
55317;BME280;41178;48.956;8.130;2024-02-14T19:26:29;100218.13;;;13.39;51.92
55317;BME280;41178;48.956;8.130;2024-02-14T19:31:31;100306.69;;;11.84;54.47
55317;BME280;41178;48.956;8.130;2024-02-14T19:36:33;100295.44;;;11.34;56.27
55317;BME280;41178;48.956;8.130;2024-02-14T19:41:37;100235.44;;;12.34;54.44
55317;BME280;41178;48.956;8.130;2024-02-14T19:46:38;100351.00;;;12.85;52.05
55317;BME280;41178;48.956;8.130;2024-02-14T19:51:40;100259.81;;;13.72;51.34
55317;BME280;41178;48.956;8.130;2024-02-14T19:56:42;100294.34;;;13.96;50.33
55317;BME280;41178;48.956;8.130;2024-02-14T20:01:44;100420.81;;;12.09;53.29
55317;BME280;41178;48.956;8.130;2024-02-14T20:06:46;100270.69;;;13.27;52.41
55317;BME280;41178;48.956;8.130;2024-02-14T20:11:47;100311.94;;;13.19;51.70
55317;BME280;41178;48.956;8.130;2024-02-14T20:16:49;100270.56;;;12.09;54.58
55317;BME280;41178;48.956;8.130;2024-02-14T20:21:51;100252.38;;;12.94;52.97
55317;BME280;41178;48.956;8.130;2024-02-14T20:26:53;100298.28;;;12.40;53.66
55317;BME280;41178;48.956;8.130;2024-02-14T20:31:54;100261.13;;;13.61;51.43
55317;BME280;41178;48.956;8.130;2024-02-14T20:36:56;100252.25;;;13.60;51.74
55317;BME280;41178;48.956;8.130;2024-02-14T20:41:58;100337.16;;;13.18;51.89
55317;BME280;41178;48.956;8.130;2024-02-14T20:47:00;100272.44;;;12.98;52.56
55317;BME280;41178;48.956;8.130;2024-02-14T20:52:02;100277.66;;;13.36;51.29
55317;BME280;41178;48.956;8.130;2024-02-14T20:57:04;100287.88;;;13.47;50.89
55317;BME280;41178;48.956;8.130;2024-02-14T21:02:06;100302.16;;;13.11;51.87
55317;BME280;41178;48.956;8.130;2024-02-14T21:07:08;100376.41;;;12.45;53.11
55317;BME280;41178;48.956;8.130;2024-02-14T21:12:12;100255.56;;;13.41;51.84
55317;BME280;41178;48.956;8.130;2024-02-14T21:17:13;100351.91;;;12.10;53.90
55317;BME280;41178;48.956;8.130;2024-02-14T21:22:16;100303.88;;;13.19;51.94
55317;BME280;41178;48.956;8.130;2024-02-14T21:27:17;100305.50;;;12.99;52.46
55317;BME280;41178;48.956;8.130;2024-02-14T21:32:20;100402.66;;;11.65;55.00
55317;BME280;41178;48.956;8.130;2024-02-14T21:37:22;100308.25;;;13.20;51.88
55317;BME280;41178;48.956;8.130;2024-02-14T21:42:24;100363.63;;;12.32;53.65
55317;BME280;41178;48.956;8.130;2024-02-14T21:47:25;100387.06;;;12.15;53.78
55317;BME280;41178;48.956;8.130;2024-02-14T21:52:28;100309.38;;;12.22;54.45
55317;BME280;41178;48.956;8.130;2024-02-14T21:57:31;100243.03;;;12.45;54.20
55317;BME280;41178;48.956;8.130;2024-02-14T22:02:32;100271.97;;;11.59;55.44
55317;BME280;41178;48.956;8.130;2024-02-14T22:07:34;100361.28;;;11.68;54.59
55317;BME280;41178;48.956;8.130;2024-02-14T22:12:37;100232.72;;;11.89;55.32
55317;BME280;41178;48.956;8.130;2024-02-14T22:17:39;100295.28;;;12.58;53.23
55317;BME280;41178;48.956;8.130;2024-02-14T22:22:41;100338.03;;;12.21;53.49
55317;BME280;41178;48.956;8.130;2024-02-14T22:27:43;100235.25;;;12.80;53.16
55317;BME280;41178;48.956;8.130;2024-02-14T22:32:44;100290.31;;;12.46;53.78
55317;BME280;41178;48.956;8.130;2024-02-14T22:37:46;100302.00;;;12.39;53.42
55317;BME280;41178;48.956;8.130;2024-02-14T22:42:48;100287.41;;;12.03;54.68
55317;BME280;41178;48.956;8.130;2024-02-14T22:47:50;100242.44;;;11.90;54.96
55317;BME280;41178;48.956;8.130;2024-02-14T22:52:52;100229.84;;;11.91;55.30
55317;BME280;41178;48.956;8.130;2024-02-14T22:57:54;100254.44;;;12.62;53.06
55317;BME280;41178;48.956;8.130;2024-02-14T23:02:55;100275.84;;;12.70;52.82
55317;BME280;41178;48.956;8.130;2024-02-14T23:07:57;100393.25;;;12.15;52.83
55317;BME280;41178;48.956;8.130;2024-02-14T23:12:59;100400.63;;;11.67;54.07
55317;BME280;41178;48.956;8.130;2024-02-14T23:18:01;100278.47;;;12.41;53.31
55317;BME280;41178;48.956;8.130;2024-02-14T23:23:02;100294.41;;;10.56;57.77
55317;BME280;41178;48.956;8.130;2024-02-14T23:28:05;100385.94;;;11.15;55.22
55317;BME280;41178;48.956;8.130;2024-02-14T23:33:06;100335.44;;;12.13;53.46
55317;BME280;41178;48.956;8.130;2024-02-14T23:38:13;100269.31;;;13.74;50.21
55317;BME280;41178;48.956;8.130;2024-02-14T23:43:15;100360.34;;;12.22;53.00
55317;BME280;41178;48.956;8.130;2024-02-14T23:48:17;100244.00;;;12.89;52.64
55317;BME280;41178;48.956;8.130;2024-02-14T23:53:19;100264.25;;;12.40;53.07
55317;BME280;41178;48.956;8.130;2024-02-14T23:58:20;100334.25;;;11.92;53.68
